Bee, Nebraska
Current Conditions -  °F | °C
As of 7:54 AM on Friday 24 Oct 2014 (Local Time) from KLNK Reporting Station
Haze Haze  
Wind Chill: 59°   Ceiling: Unl
Heat Index: 59°   Visibility: 5mi
Dew Point: 57°   Wind: 7mph
Humidity: 93%   Direction: 190°S
Pressure: 29.94"   Gusts: NA
Location:  41.01°N, 97.06°W
Report Text: KLNK 241254Z 19006KT 5SM BR CLR 15/14 A2994 RMK AO2 SLP137 T01500139
Loading
Personal Weather Stations






























Interactive Weather Map
Tropical Storm Tracking
New forecast layout! Learn more

10-Day Weather Forecast

Advertisements
Track Severe Weather on mobile